sensor_id;sensor_type;location;lat;lon;timestamp;P1;durP1;ratioP1;P2;durP2;ratioP2
34236;SDS011;20501;45.956;13.632;2023-11-19T00:00:34;14.10;;;8.52;;
34236;SDS011;20501;45.956;13.632;2023-11-19T00:02:59;14.60;;;8.00;;
34236;SDS011;20501;45.956;13.632;2023-11-19T00:05:24;15.98;;;7.03;;
34236;SDS011;20501;45.956;13.632;2023-11-19T00:07:50;12.88;;;7.10;;
34236;SDS011;20501;45.956;13.632;2023-11-19T00:10:16;13.90;;;6.78;;
34236;SDS011;20501;45.956;13.632;2023-11-19T00:12:46;8.93;;;4.93;;
34236;SDS011;20501;45.956;13.632;2023-11-19T00:15:13;11.00;;;5.28;;
34236;SDS011;20501;45.956;13.632;2023-11-19T00:17:39;8.52;;;4.88;;
34236;SDS011;20501;45.956;13.632;2023-11-19T00:20:06;7.05;;;4.53;;
34236;SDS011;20501;45.956;13.632;2023-11-19T00:22:32;12.73;;;4.35;;
34236;SDS011;20501;45.956;13.632;2023-11-19T00:24:58;8.73;;;4.53;;
34236;SDS011;20501;45.956;13.632;2023-11-19T00:27:24;9.67;;;5.00;;
34236;SDS011;20501;45.956;13.632;2023-11-19T00:29:50;5.18;;;3.60;;
34236;SDS011;20501;45.956;13.632;2023-11-19T00:32:15;7.88;;;4.00;;
34236;SDS011;20501;45.956;13.632;2023-11-19T00:34:43;8.73;;;4.07;;
34236;SDS011;20501;45.956;13.632;2023-11-19T00:37:09;8.20;;;4.32;;
34236;SDS011;20501;45.956;13.632;2023-11-19T00:39:34;9.48;;;3.72;;
34236;SDS011;20501;45.956;13.632;2023-11-19T00:42:00;7.07;;;3.47;;
34236;SDS011;20501;45.956;13.632;2023-11-19T00:44:25;8.20;;;4.18;;
34236;SDS011;20501;45.956;13.632;2023-11-19T00:46:51;6.75;;;4.30;;
34236;SDS011;20501;45.956;13.632;2023-11-19T00:49:16;7.97;;;3.38;;
34236;SDS011;20501;45.956;13.632;2023-11-19T00:51:42;6.47;;;3.65;;
34236;SDS011;20501;45.956;13.632;2023-11-19T00:54:07;8.90;;;4.18;;
34236;SDS011;20501;45.956;13.632;2023-11-19T00:56:32;9.35;;;3.85;;
34236;SDS011;20501;45.956;13.632;2023-11-19T00:58:58;8.27;;;4.63;;
34236;SDS011;20501;45.956;13.632;2023-11-19T01:01:25;7.57;;;4.20;;
34236;SDS011;20501;45.956;13.632;2023-11-19T01:03:50;12.27;;;4.05;;
34236;SDS011;20501;45.956;13.632;2023-11-19T01:06:26;6.80;;;4.13;;
34236;SDS011;20501;45.956;13.632;2023-11-19T01:08:52;7.45;;;4.00;;
34236;SDS011;20501;45.956;13.632;2023-11-19T01:11:21;11.38;;;4.15;;
34236;SDS011;20501;45.956;13.632;2023-11-19T01:13:47;9.20;;;5.13;;
34236;SDS011;20501;45.956;13.632;2023-11-19T01:16:13;7.38;;;3.55;;
34236;SDS011;20501;45.956;13.632;2023-11-19T01:18:38;6.45;;;3.33;;
34236;SDS011;20501;45.956;13.632;2023-11-19T01:21:04;5.38;;;3.38;;
34236;SDS011;20501;45.956;13.632;2023-11-19T01:23:30;9.47;;;3.43;;
34236;SDS011;20501;45.956;13.632;2023-11-19T01:25:55;10.40;;;5.20;;
34236;SDS011;20501;45.956;13.632;2023-11-19T01:28:21;10.00;;;5.35;;
34236;SDS011;20501;45.956;13.632;2023-11-19T01:30:46;10.98;;;6.05;;
34236;SDS011;20501;45.956;13.632;2023-11-19T01:33:12;12.80;;;5.85;;
34236;SDS011;20501;45.956;13.632;2023-11-19T01:35:37;15.18;;;5.78;;
34236;SDS011;20501;45.956;13.632;2023-11-19T01:38:03;10.05;;;5.10;;
34236;SDS011;20501;45.956;13.632;2023-11-19T01:40:28;14.65;;;5.38;;
34236;SDS011;20501;45.956;13.632;2023-11-19T01:42:54;8.88;;;5.00;;
34236;SDS011;20501;45.956;13.632;2023-11-19T01:45:29;8.73;;;4.75;;
34236;SDS011;20501;45.956;13.632;2023-11-19T01:47:56;13.90;;;4.55;;
34236;SDS011;20501;45.956;13.632;2023-11-19T01:50:22;6.20;;;3.90;;
34236;SDS011;20501;45.956;13.632;2023-11-19T01:52:50;8.18;;;4.13;;
34236;SDS011;20501;45.956;13.632;2023-11-19T01:55:19;8.13;;;4.05;;
34236;SDS011;20501;45.956;13.632;2023-11-19T01:57:46;8.57;;;4.10;;
34236;SDS011;20501;45.956;13.632;2023-11-19T02:00:16;6.95;;;3.90;;
34236;SDS011;20501;45.956;13.632;2023-11-19T02:02:44;7.53;;;4.25;;
34236;SDS011;20501;45.956;13.632;2023-11-19T02:05:11;8.23;;;4.40;;
34236;SDS011;20501;45.956;13.632;2023-11-19T02:07:38;6.72;;;3.83;;
34236;SDS011;20501;45.956;13.632;2023-11-19T02:10:04;6.45;;;3.90;;
34236;SDS011;20501;45.956;13.632;2023-11-19T02:12:31;7.43;;;3.85;;
34236;SDS011;20501;45.956;13.632;2023-11-19T02:15:01;9.93;;;4.03;;
34236;SDS011;20501;45.956;13.632;2023-11-19T02:17:30;7.82;;;4.20;;
34236;SDS011;20501;45.956;13.632;2023-11-19T02:19:57;6.90;;;3.67;;
34236;SDS011;20501;45.956;13.632;2023-11-19T02:22:23;7.35;;;3.70;;
34236;SDS011;20501;45.956;13.632;2023-11-19T02:24:49;11.48;;;3.72;;
34236;SDS011;20501;45.956;13.632;2023-11-19T02:27:21;8.25;;;3.92;;
34236;SDS011;20501;45.956;13.632;2023-11-19T02:29:50;6.05;;;3.67;;
34236;SDS011;20501;45.956;13.632;2023-11-19T02:32:15;7.50;;;4.05;;
34236;SDS011;20501;45.956;13.632;2023-11-19T02:34:41;6.53;;;3.50;;
34236;SDS011;20501;45.956;13.632;2023-11-19T02:37:06;6.57;;;4.10;;
34236;SDS011;20501;45.956;13.632;2023-11-19T02:39:31;7.13;;;3.92;;
34236;SDS011;20501;45.956;13.632;2023-11-19T02:41:57;7.43;;;4.03;;
34236;SDS011;20501;45.956;13.632;2023-11-19T02:44:22;7.78;;;3.95;;
34236;SDS011;20501;45.956;13.632;2023-11-19T02:46:48;6.00;;;3.97;;
34236;SDS011;20501;45.956;13.632;2023-11-19T02:49:14;6.15;;;3.80;;
34236;SDS011;20501;45.956;13.632;2023-11-19T02:51:40;7.85;;;4.47;;
34236;SDS011;20501;45.956;13.632;2023-11-19T02:54:06;6.40;;;3.70;;
34236;SDS011;20501;45.956;13.632;2023-11-19T02:56:31;7.63;;;3.20;;
34236;SDS011;20501;45.956;13.632;2023-11-19T02:59:00;7.93;;;4.10;;
34236;SDS011;20501;45.956;13.632;2023-11-19T03:01:36;6.28;;;3.38;;
34236;SDS011;20501;45.956;13.632;2023-11-19T03:04:02;7.18;;;3.78;;
34236;SDS011;20501;45.956;13.632;2023-11-19T03:06:28;7.65;;;3.88;;
34236;SDS011;20501;45.956;13.632;2023-11-19T03:08:55;7.40;;;4.25;;
34236;SDS011;20501;45.956;13.632;2023-11-19T03:11:21;8.17;;;3.63;;
34236;SDS011;20501;45.956;13.632;2023-11-19T03:13:46;7.65;;;3.85;;
34236;SDS011;20501;45.956;13.632;2023-11-19T03:16:12;6.93;;;3.92;;
34236;SDS011;20501;45.956;13.632;2023-11-19T03:18:38;8.10;;;4.00;;
34236;SDS011;20501;45.956;13.632;2023-11-19T03:21:07;6.63;;;4.27;;
34236;SDS011;20501;45.956;13.632;2023-11-19T03:23:33;8.55;;;4.35;;
34236;SDS011;20501;45.956;13.632;2023-11-19T03:25:59;8.63;;;5.15;;
34236;SDS011;20501;45.956;13.632;2023-11-19T03:28:28;5.68;;;3.55;;
34236;SDS011;20501;45.956;13.632;2023-11-19T03:30:53;9.85;;;3.92;;
34236;SDS011;20501;45.956;13.632;2023-11-19T03:33:19;6.15;;;3.83;;
34236;SDS011;20501;45.956;13.632;2023-11-19T03:35:44;7.10;;;4.00;;
34236;SDS011;20501;45.956;13.632;2023-11-19T03:38:11;11.38;;;4.03;;
34236;SDS011;20501;45.956;13.632;2023-11-19T03:40:36;6.88;;;4.10;;
34236;SDS011;20501;45.956;13.632;2023-11-19T03:43:02;7.88;;;4.07;;
34236;SDS011;20501;45.956;13.632;2023-11-19T03:45:29;8.40;;;4.28;;
34236;SDS011;20501;45.956;13.632;2023-11-19T03:47:54;7.95;;;4.10;;
34236;SDS011;20501;45.956;13.632;2023-11-19T03:50:20;6.93;;;4.18;;
34236;SDS011;20501;45.956;13.632;2023-11-19T03:52:46;7.65;;;3.90;;
34236;SDS011;20501;45.956;13.632;2023-11-19T03:55:12;7.83;;;4.63;;
34236;SDS011;20501;45.956;13.632;2023-11-19T03:57:38;9.23;;;4.65;;
34236;SDS011;20501;45.956;13.632;2023-11-19T04:00:04;8.45;;;4.32;;
34236;SDS011;20501;45.956;13.632;2023-11-19T04:02:35;8.63;;;4.38;;
34236;SDS011;20501;45.956;13.632;2023-11-19T04:05:00;8.77;;;4.28;;
34236;SDS011;20501;45.956;13.632;2023-11-19T04:07:26;9.32;;;4.20;;
34236;SDS011;20501;45.956;13.632;2023-11-19T04:09:51;11.07;;;4.10;;
34236;SDS011;20501;45.956;13.632;2023-11-19T04:12:17;7.25;;;3.85;;
34236;SDS011;20501;45.956;13.632;2023-11-19T04:14:42;8.60;;;3.88;;
34236;SDS011;20501;45.956;13.632;2023-11-19T04:17:09;6.90;;;3.80;;
34236;SDS011;20501;45.956;13.632;2023-11-19T04:19:34;6.22;;;4.25;;
34236;SDS011;20501;45.956;13.632;2023-11-19T04:21:59;13.18;;;4.13;;
34236;SDS011;20501;45.956;13.632;2023-11-19T04:24:25;7.30;;;4.05;;
34236;SDS011;20501;45.956;13.632;2023-11-19T04:26:50;9.57;;;4.50;;
34236;SDS011;20501;45.956;13.632;2023-11-19T04:29:17;6.60;;;3.42;;
34236;SDS011;20501;45.956;13.632;2023-11-19T04:31:43;6.75;;;3.67;;
34236;SDS011;20501;45.956;13.632;2023-11-19T04:34:09;8.40;;;4.05;;
34236;SDS011;20501;45.956;13.632;2023-11-19T04:36:36;8.93;;;4.28;;
34236;SDS011;20501;45.956;13.632;2023-11-19T04:39:03;7.40;;;3.58;;
34236;SDS011;20501;45.956;13.632;2023-11-19T04:41:46;6.75;;;4.00;;
34236;SDS011;20501;45.956;13.632;2023-11-19T04:44:17;7.23;;;4.17;;
34236;SDS011;20501;45.956;13.632;2023-11-19T04:46:42;9.68;;;4.20;;
34236;SDS011;20501;45.956;13.632;2023-11-19T04:49:09;6.03;;;3.88;;
34236;SDS011;20501;45.956;13.632;2023-11-19T04:51:41;6.53;;;4.00;;
34236;SDS011;20501;45.956;13.632;2023-11-19T04:54:09;7.07;;;3.85;;
34236;SDS011;20501;45.956;13.632;2023-11-19T04:56:38;7.28;;;3.70;;
34236;SDS011;20501;45.956;13.632;2023-11-19T04:59:04;5.95;;;3.88;;
34236;SDS011;20501;45.956;13.632;2023-11-19T05:01:31;16.77;;;4.80;;
34236;SDS011;20501;45.956;13.632;2023-11-19T05:03:59;6.80;;;3.53;;
34236;SDS011;20501;45.956;13.632;2023-11-19T05:06:31;5.15;;;3.70;;
34236;SDS011;20501;45.956;13.632;2023-11-19T05:08:58;8.70;;;3.65;;
34236;SDS011;20501;45.956;13.632;2023-11-19T05:11:35;6.10;;;3.90;;
34236;SDS011;20501;45.956;13.632;2023-11-19T05:14:02;8.07;;;4.13;;
34236;SDS011;20501;45.956;13.632;2023-11-19T05:16:29;5.60;;;3.38;;
34236;SDS011;20501;45.956;13.632;2023-11-19T05:18:54;8.52;;;3.70;;
34236;SDS011;20501;45.956;13.632;2023-11-19T05:21:20;7.55;;;3.58;;
34236;SDS011;20501;45.956;13.632;2023-11-19T05:23:45;7.05;;;3.65;;
34236;SDS011;20501;45.956;13.632;2023-11-19T05:26:18;6.78;;;3.65;;
34236;SDS011;20501;45.956;13.632;2023-11-19T05:28:45;7.20;;;4.03;;
34236;SDS011;20501;45.956;13.632;2023-11-19T05:31:11;7.20;;;3.80;;
34236;SDS011;20501;45.956;13.632;2023-11-19T05:33:36;9.25;;;3.90;;
34236;SDS011;20501;45.956;13.632;2023-11-19T05:36:01;8.70;;;4.10;;
34236;SDS011;20501;45.956;13.632;2023-11-19T05:38:28;8.50;;;4.00;;
34236;SDS011;20501;45.956;13.632;2023-11-19T05:40:54;6.38;;;3.70;;
34236;SDS011;20501;45.956;13.632;2023-11-19T05:43:20;7.18;;;4.10;;
34236;SDS011;20501;45.956;13.632;2023-11-19T05:45:46;5.70;;;3.72;;
34236;SDS011;20501;45.956;13.632;2023-11-19T05:48:11;5.13;;;3.28;;
34236;SDS011;20501;45.956;13.632;2023-11-19T05:50:37;6.22;;;4.05;;
34236;SDS011;20501;45.956;13.632;2023-11-19T05:53:03;9.18;;;3.63;;
34236;SDS011;20501;45.956;13.632;2023-11-19T05:55:33;9.57;;;3.90;;
34236;SDS011;20501;45.956;13.632;2023-11-19T05:57:59;8.48;;;4.10;;
34236;SDS011;20501;45.956;13.632;2023-11-19T06:00:25;8.45;;;4.30;;
34236;SDS011;20501;45.956;13.632;2023-11-19T06:02:51;6.03;;;3.65;;
34236;SDS011;20501;45.956;13.632;2023-11-19T06:05:17;6.30;;;3.90;;
34236;SDS011;20501;45.956;13.632;2023-11-19T06:07:43;6.55;;;3.85;;
34236;SDS011;20501;45.956;13.632;2023-11-19T06:10:08;7.32;;;3.78;;
34236;SDS011;20501;45.956;13.632;2023-11-19T06:15:06;9.05;;;3.85;;
34236;SDS011;20501;45.956;13.632;2023-11-19T06:17:33;8.70;;;4.00;;
34236;SDS011;20501;45.956;13.632;2023-11-19T06:19:59;10.82;;;4.18;;
34236;SDS011;20501;45.956;13.632;2023-11-19T06:22:24;7.82;;;4.07;;
34236;SDS011;20501;45.956;13.632;2023-11-19T06:24:50;7.72;;;4.10;;
34236;SDS011;20501;45.956;13.632;2023-11-19T06:27:15;9.00;;;3.58;;
34236;SDS011;20501;45.956;13.632;2023-11-19T06:29:40;7.20;;;4.57;;
34236;SDS011;20501;45.956;13.632;2023-11-19T06:32:07;5.18;;;3.30;;
34236;SDS011;20501;45.956;13.632;2023-11-19T06:34:33;7.97;;;3.83;;
34236;SDS011;20501;45.956;13.632;2023-11-19T06:36:59;7.63;;;3.60;;
34236;SDS011;20501;45.956;13.632;2023-11-19T06:39:24;7.03;;;3.50;;
34236;SDS011;20501;45.956;13.632;2023-11-19T06:41:50;8.95;;;3.92;;
34236;SDS011;20501;45.956;13.632;2023-11-19T06:44:15;9.05;;;3.95;;
34236;SDS011;20501;45.956;13.632;2023-11-19T06:46:41;7.47;;;3.58;;
34236;SDS011;20501;45.956;13.632;2023-11-19T06:49:06;6.93;;;4.05;;
34236;SDS011;20501;45.956;13.632;2023-11-19T06:51:35;7.22;;;4.32;;
34236;SDS011;20501;45.956;13.632;2023-11-19T06:54:00;7.97;;;4.53;;
34236;SDS011;20501;45.956;13.632;2023-11-19T06:56:26;7.70;;;4.38;;
34236;SDS011;20501;45.956;13.632;2023-11-19T06:58:51;9.68;;;4.03;;
34236;SDS011;20501;45.956;13.632;2023-11-19T07:01:18;8.77;;;4.07;;
34236;SDS011;20501;45.956;13.632;2023-11-19T07:03:45;7.07;;;4.53;;
34236;SDS011;20501;45.956;13.632;2023-11-19T07:06:11;8.52;;;4.00;;
34236;SDS011;20501;45.956;13.632;2023-11-19T07:08:38;6.95;;;3.67;;
34236;SDS011;20501;45.956;13.632;2023-11-19T07:11:04;8.30;;;4.10;;
34236;SDS011;20501;45.956;13.632;2023-11-19T07:13:29;6.88;;;3.75;;
34236;SDS011;20501;45.956;13.632;2023-11-19T07:15:58;6.57;;;3.70;;
34236;SDS011;20501;45.956;13.632;2023-11-19T07:18:23;6.65;;;3.40;;
34236;SDS011;20501;45.956;13.632;2023-11-19T07:20:49;7.20;;;3.95;;
34236;SDS011;20501;45.956;13.632;2023-11-19T07:23:14;18.52;;;5.97;;
34236;SDS011;20501;45.956;13.632;2023-11-19T07:28:08;9.80;;;4.30;;
34236;SDS011;20501;45.956;13.632;2023-11-19T07:30:35;9.77;;;4.05;;
34236;SDS011;20501;45.956;13.632;2023-11-19T07:33:00;7.38;;;4.03;;
34236;SDS011;20501;45.956;13.632;2023-11-19T07:35:25;8.43;;;4.40;;
34236;SDS011;20501;45.956;13.632;2023-11-19T07:37:51;11.82;;;4.63;;
34236;SDS011;20501;45.956;13.632;2023-11-19T07:40:16;7.53;;;4.43;;
34236;SDS011;20501;45.956;13.632;2023-11-19T07:42:42;6.40;;;4.13;;
34236;SDS011;20501;45.956;13.632;2023-11-19T07:45:07;6.82;;;4.18;;
34236;SDS011;20501;45.956;13.632;2023-11-19T07:47:33;15.73;;;5.43;;
34236;SDS011;20501;45.956;13.632;2023-11-19T07:49:59;7.15;;;4.20;;
34236;SDS011;20501;45.956;13.632;2023-11-19T07:52:24;8.63;;;4.15;;
34236;SDS011;20501;45.956;13.632;2023-11-19T07:54:50;8.85;;;4.45;;
34236;SDS011;20501;45.956;13.632;2023-11-19T07:57:15;8.18;;;4.43;;
34236;SDS011;20501;45.956;13.632;2023-11-19T07:59:41;6.57;;;4.63;;
34236;SDS011;20501;45.956;13.632;2023-11-19T08:02:06;11.25;;;3.75;;
34236;SDS011;20501;45.956;13.632;2023-11-19T08:04:32;7.63;;;4.30;;
34236;SDS011;20501;45.956;13.632;2023-11-19T08:06:57;7.97;;;4.55;;
34236;SDS011;20501;45.956;13.632;2023-11-19T08:09:22;9.55;;;4.55;;
34236;SDS011;20501;45.956;13.632;2023-11-19T08:11:48;6.70;;;4.15;;
34236;SDS011;20501;45.956;13.632;2023-11-19T08:14:13;6.45;;;3.92;;
34236;SDS011;20501;45.956;13.632;2023-11-19T08:16:39;11.63;;;3.90;;
34236;SDS011;20501;45.956;13.632;2023-11-19T08:19:05;7.23;;;3.80;;
34236;SDS011;20501;45.956;13.632;2023-11-19T08:21:30;9.65;;;4.20;;
34236;SDS011;20501;45.956;13.632;2023-11-19T08:23:56;10.45;;;4.30;;
34236;SDS011;20501;45.956;13.632;2023-11-19T08:26:21;8.30;;;3.90;;
34236;SDS011;20501;45.956;13.632;2023-11-19T08:28:47;6.47;;;3.67;;
34236;SDS011;20501;45.956;13.632;2023-11-19T08:31:12;7.25;;;3.58;;
34236;SDS011;20501;45.956;13.632;2023-11-19T08:33:38;10.48;;;4.15;;
34236;SDS011;20501;45.956;13.632;2023-11-19T08:36:03;9.13;;;3.75;;
34236;SDS011;20501;45.956;13.632;2023-11-19T08:38:29;6.13;;;3.42;;
34236;SDS011;20501;45.956;13.632;2023-11-19T08:40:55;10.15;;;3.38;;
34236;SDS011;20501;45.956;13.632;2023-11-19T08:43:25;6.60;;;3.28;;
34236;SDS011;20501;45.956;13.632;2023-11-19T08:45:51;5.85;;;3.30;;
34236;SDS011;20501;45.956;13.632;2023-11-19T08:48:16;4.93;;;3.10;;
34236;SDS011;20501;45.956;13.632;2023-11-19T08:50:42;8.32;;;3.92;;
34236;SDS011;20501;45.956;13.632;2023-11-19T08:53:07;5.53;;;3.40;;
34236;SDS011;20501;45.956;13.632;2023-11-19T08:55:32;7.10;;;3.25;;
34236;SDS011;20501;45.956;13.632;2023-11-19T08:57:58;6.00;;;4.13;;
34236;SDS011;20501;45.956;13.632;2023-11-19T09:00:23;5.05;;;3.60;;
34236;SDS011;20501;45.956;13.632;2023-11-19T09:02:49;8.02;;;3.42;;
34236;SDS011;20501;45.956;13.632;2023-11-19T09:05:14;5.95;;;3.40;;
34236;SDS011;20501;45.956;13.632;2023-11-19T09:07:39;6.60;;;3.88;;
34236;SDS011;20501;45.956;13.632;2023-11-19T09:10:05;5.43;;;3.28;;
34236;SDS011;20501;45.956;13.632;2023-11-19T09:12:33;6.40;;;3.67;;
34236;SDS011;20501;45.956;13.632;2023-11-19T09:14:59;7.38;;;4.10;;
34236;SDS011;20501;45.956;13.632;2023-11-19T09:17:24;5.43;;;3.60;;
34236;SDS011;20501;45.956;13.632;2023-11-19T09:19:50;7.53;;;4.00;;
34236;SDS011;20501;45.956;13.632;2023-11-19T09:22:15;10.18;;;4.10;;
34236;SDS011;20501;45.956;13.632;2023-11-19T09:24:41;7.50;;;4.20;;
34236;SDS011;20501;45.956;13.632;2023-11-19T09:27:09;10.60;;;5.18;;
34236;SDS011;20501;45.956;13.632;2023-11-19T09:29:34;13.65;;;6.40;;
34236;SDS011;20501;45.956;13.632;2023-11-19T09:31:59;12.75;;;6.95;;
34236;SDS011;20501;45.956;13.632;2023-11-19T09:34:25;10.95;;;6.32;;
34236;SDS011;20501;45.956;13.632;2023-11-19T09:36:51;10.57;;;6.13;;
34236;SDS011;20501;45.956;13.632;2023-11-19T09:39:16;9.43;;;4.68;;
34236;SDS011;20501;45.956;13.632;2023-11-19T09:41:43;9.50;;;4.53;;
34236;SDS011;20501;45.956;13.632;2023-11-19T09:44:10;7.82;;;4.25;;
34236;SDS011;20501;45.956;13.632;2023-11-19T09:46:37;9.70;;;4.35;;
34236;SDS011;20501;45.956;13.632;2023-11-19T09:49:04;7.93;;;3.80;;
34236;SDS011;20501;45.956;13.632;2023-11-19T09:51:33;6.78;;;3.97;;
34236;SDS011;20501;45.956;13.632;2023-11-19T09:54:00;6.63;;;4.20;;
34236;SDS011;20501;45.956;13.632;2023-11-19T09:56:26;9.13;;;4.28;;
34236;SDS011;20501;45.956;13.632;2023-11-19T09:58:58;7.72;;;4.40;;
34236;SDS011;20501;45.956;13.632;2023-11-19T10:01:24;7.97;;;4.37;;
34236;SDS011;20501;45.956;13.632;2023-11-19T10:03:50;7.88;;;4.18;;
34236;SDS011;20501;45.956;13.632;2023-11-19T10:06:18;6.05;;;3.58;;
34236;SDS011;20501;45.956;13.632;2023-11-19T10:08:44;8.73;;;4.50;;
34236;SDS011;20501;45.956;13.632;2023-11-19T10:11:09;7.65;;;4.10;;
34236;SDS011;20501;45.956;13.632;2023-11-19T10:13:38;8.18;;;4.88;;
34236;SDS011;20501;45.956;13.632;2023-11-19T10:16:07;10.38;;;5.75;;
34236;SDS011;20501;45.956;13.632;2023-11-19T10:18:38;10.35;;;5.10;;
34236;SDS011;20501;45.956;13.632;2023-11-19T10:21:10;10.35;;;4.63;;
34236;SDS011;20501;45.956;13.632;2023-11-19T10:23:55;9.10;;;4.68;;
34236;SDS011;20501;45.956;13.632;2023-11-19T10:26:25;7.72;;;4.60;;
34236;SDS011;20501;45.956;13.632;2023-11-19T10:28:52;10.23;;;4.85;;
34236;SDS011;20501;45.956;13.632;2023-11-19T10:31:18;8.65;;;5.13;;
34236;SDS011;20501;45.956;13.632;2023-11-19T10:33:48;7.93;;;5.05;;
34236;SDS011;20501;45.956;13.632;2023-11-19T10:36:13;8.38;;;4.40;;
34236;SDS011;20501;45.956;13.632;2023-11-19T10:38:40;8.77;;;5.30;;
34236;SDS011;20501;45.956;13.632;2023-11-19T10:41:06;6.93;;;4.22;;
34236;SDS011;20501;45.956;13.632;2023-11-19T10:43:41;11.30;;;5.25;;
34236;SDS011;20501;45.956;13.632;2023-11-19T10:48:38;9.98;;;5.97;;
34236;SDS011;20501;45.956;13.632;2023-11-19T10:51:05;18.40;;;11.80;;
34236;SDS011;20501;45.956;13.632;2023-11-19T10:53:36;17.20;;;10.30;;
34236;SDS011;20501;45.956;13.632;2023-11-19T10:56:04;14.43;;;7.38;;
34236;SDS011;20501;45.956;13.632;2023-11-19T10:58:33;11.77;;;6.65;;
34236;SDS011;20501;45.956;13.632;2023-11-19T11:01:02;18.58;;;8.02;;
34236;SDS011;20501;45.956;13.632;2023-11-19T11:03:39;13.05;;;6.70;;
34236;SDS011;20501;45.956;13.632;2023-11-19T11:06:05;15.45;;;7.32;;
34236;SDS011;20501;45.956;13.632;2023-11-19T11:08:31;11.60;;;7.10;;
34236;SDS011;20501;45.956;13.632;2023-11-19T11:10:57;10.85;;;6.03;;
34236;SDS011;20501;45.956;13.632;2023-11-19T11:13:23;15.35;;;7.07;;
34236;SDS011;20501;45.956;13.632;2023-11-19T11:18:16;11.38;;;6.55;;
34236;SDS011;20501;45.956;13.632;2023-11-19T11:26:08;13.23;;;6.32;;
34236;SDS011;20501;45.956;13.632;2023-11-19T11:37:32;10.10;;;5.65;;
34236;SDS011;20501;45.956;13.632;2023-11-19T11:40:00;11.38;;;6.32;;
34236;SDS011;20501;45.956;13.632;2023-11-19T11:42:31;9.18;;;5.55;;
34236;SDS011;20501;45.956;13.632;2023-11-19T11:47:48;10.15;;;5.65;;
34236;SDS011;20501;45.956;13.632;2023-11-19T11:50:21;11.13;;;5.60;;
34236;SDS011;20501;45.956;13.632;2023-11-19T11:57:54;7.60;;;4.90;;
34236;SDS011;20501;45.956;13.632;2023-11-19T12:02:56;6.63;;;4.57;;
34236;SDS011;20501;45.956;13.632;2023-11-19T12:05:24;12.20;;;5.40;;
34236;SDS011;20501;45.956;13.632;2023-11-19T12:10:24;12.23;;;5.90;;
34236;SDS011;20501;45.956;13.632;2023-11-19T12:12:52;9.80;;;5.10;;
34236;SDS011;20501;45.956;13.632;2023-11-19T12:15:18;8.80;;;5.18;;
34236;SDS011;20501;45.956;13.632;2023-11-19T12:17:50;9.52;;;5.18;;
34236;SDS011;20501;45.956;13.632;2023-11-19T12:20:17;7.10;;;5.25;;
34236;SDS011;20501;45.956;13.632;2023-11-19T12:22:44;10.68;;;4.68;;
34236;SDS011;20501;45.956;13.632;2023-11-19T12:25:12;8.80;;;5.05;;
34236;SDS011;20501;45.956;13.632;2023-11-19T12:27:41;7.28;;;3.83;;
34236;SDS011;20501;45.956;13.632;2023-11-19T12:30:08;7.22;;;3.78;;
34236;SDS011;20501;45.956;13.632;2023-11-19T12:32:44;5.23;;;3.93;;
34236;SDS011;20501;45.956;13.632;2023-11-19T12:35:10;5.43;;;3.53;;
34236;SDS011;20501;45.956;13.632;2023-11-19T12:40:12;6.60;;;4.03;;
34236;SDS011;20501;45.956;13.632;2023-11-19T12:42:38;5.38;;;3.75;;
34236;SDS011;20501;45.956;13.632;2023-11-19T12:45:04;6.75;;;3.97;;
34236;SDS011;20501;45.956;13.632;2023-11-19T12:47:30;5.63;;;3.95;;
34236;SDS011;20501;45.956;13.632;2023-11-19T12:49:56;4.45;;;3.40;;
34236;SDS011;20501;45.956;13.632;2023-11-19T12:52:22;6.70;;;4.50;;
34236;SDS011;20501;45.956;13.632;2023-11-19T12:54:48;6.60;;;4.30;;
34236;SDS011;20501;45.956;13.632;2023-11-19T12:57:14;6.65;;;4.57;;
34236;SDS011;20501;45.956;13.632;2023-11-19T12:59:40;7.93;;;5.00;;
34236;SDS011;20501;45.956;13.632;2023-11-19T13:02:06;8.00;;;4.03;;
34236;SDS011;20501;45.956;13.632;2023-11-19T13:04:32;6.00;;;3.97;;
34236;SDS011;20501;45.956;13.632;2023-11-19T13:06:58;3.88;;;2.72;;
34236;SDS011;20501;45.956;13.632;2023-11-19T13:09:25;6.97;;;4.32;;
34236;SDS011;20501;45.956;13.632;2023-11-19T13:11:54;6.75;;;3.38;;
34236;SDS011;20501;45.956;13.632;2023-11-19T13:14:21;7.07;;;3.65;;
34236;SDS011;20501;45.956;13.632;2023-11-19T13:16:47;8.37;;;3.97;;
34236;SDS011;20501;45.956;13.632;2023-11-19T13:19:13;5.70;;;3.58;;
34236;SDS011;20501;45.956;13.632;2023-11-19T13:21:44;9.45;;;3.78;;
34236;SDS011;20501;45.956;13.632;2023-11-19T13:24:13;6.63;;;3.97;;
34236;SDS011;20501;45.956;13.632;2023-11-19T13:26:39;5.30;;;3.58;;
34236;SDS011;20501;45.956;13.632;2023-11-19T13:29:04;6.00;;;3.75;;
34236;SDS011;20501;45.956;13.632;2023-11-19T13:31:30;9.40;;;4.00;;
34236;SDS011;20501;45.956;13.632;2023-11-19T13:33:55;7.95;;;5.10;;
34236;SDS011;20501;45.956;13.632;2023-11-19T13:38:48;10.35;;;6.28;;
34236;SDS011;20501;45.956;13.632;2023-11-19T13:41:13;10.35;;;6.45;;
34236;SDS011;20501;45.956;13.632;2023-11-19T13:43:39;10.13;;;6.30;;
34236;SDS011;20501;45.956;13.632;2023-11-19T13:46:05;11.57;;;6.93;;
34236;SDS011;20501;45.956;13.632;2023-11-19T13:48:31;11.88;;;7.15;;
34236;SDS011;20501;45.956;13.632;2023-11-19T13:50:57;11.23;;;7.30;;
34236;SDS011;20501;45.956;13.632;2023-11-19T13:53:23;13.80;;;7.85;;
34236;SDS011;20501;45.956;13.632;2023-11-19T13:55:49;13.73;;;7.90;;
34236;SDS011;20501;45.956;13.632;2023-11-19T13:58:15;12.98;;;8.02;;
34236;SDS011;20501;45.956;13.632;2023-11-19T14:00:41;13.07;;;7.35;;
34236;SDS011;20501;45.956;13.632;2023-11-19T14:03:08;11.32;;;6.70;;
34236;SDS011;20501;45.956;13.632;2023-11-19T14:05:35;11.45;;;6.82;;
34236;SDS011;20501;45.956;13.632;2023-11-19T14:08:00;10.07;;;6.70;;
34236;SDS011;20501;45.956;13.632;2023-11-19T14:10:26;9.85;;;6.32;;
34236;SDS011;20501;45.956;13.632;2023-11-19T14:12:51;13.20;;;7.53;;
34236;SDS011;20501;45.956;13.632;2023-11-19T14:15:17;12.52;;;7.53;;
34236;SDS011;20501;45.956;13.632;2023-11-19T14:17:43;11.95;;;7.35;;
34236;SDS011;20501;45.956;13.632;2023-11-19T14:20:08;12.18;;;6.50;;
34236;SDS011;20501;45.956;13.632;2023-11-19T14:22:41;9.45;;;5.85;;
34236;SDS011;20501;45.956;13.632;2023-11-19T14:25:10;9.95;;;6.43;;
34236;SDS011;20501;45.956;13.632;2023-11-19T14:27:39;11.73;;;7.00;;
34236;SDS011;20501;45.956;13.632;2023-11-19T14:30:10;11.32;;;7.00;;
34236;SDS011;20501;45.956;13.632;2023-11-19T14:32:36;13.05;;;6.68;;
34236;SDS011;20501;45.956;13.632;2023-11-19T14:35:02;11.47;;;6.30;;
34236;SDS011;20501;45.956;13.632;2023-11-19T14:37:32;10.93;;;7.32;;
34236;SDS011;20501;45.956;13.632;2023-11-19T14:39:57;15.50;;;7.20;;
34236;SDS011;20501;45.956;13.632;2023-11-19T14:42:24;15.63;;;7.68;;
34236;SDS011;20501;45.956;13.632;2023-11-19T14:44:50;12.05;;;7.57;;
34236;SDS011;20501;45.956;13.632;2023-11-19T14:47:20;12.30;;;7.97;;
34236;SDS011;20501;45.956;13.632;2023-11-19T14:49:46;15.15;;;8.25;;
34236;SDS011;20501;45.956;13.632;2023-11-19T14:52:12;11.15;;;7.10;;
34236;SDS011;20501;45.956;13.632;2023-11-19T14:54:38;16.30;;;7.72;;
34236;SDS011;20501;45.956;13.632;2023-11-19T14:57:04;12.43;;;7.53;;
34236;SDS011;20501;45.956;13.632;2023-11-19T14:59:31;10.50;;;6.88;;
34236;SDS011;20501;45.956;13.632;2023-11-19T15:01:57;12.07;;;7.53;;
34236;SDS011;20501;45.956;13.632;2023-11-19T15:04:23;13.15;;;8.57;;
34236;SDS011;20501;45.956;13.632;2023-11-19T15:06:49;14.63;;;6.85;;
34236;SDS011;20501;45.956;13.632;2023-11-19T15:09:14;10.98;;;7.10;;